sensor_id;sensor_type;location;lat;lon;timestamp;P1;durP1;ratioP1;P2;durP2;ratioP2
39098;SDS011;24844;52.380;7.018;2023-07-13T00:00:28;8.27;;;1.70;;
39098;SDS011;24844;52.380;7.018;2023-07-13T00:02:55;7.13;;;1.52;;
39098;SDS011;24844;52.380;7.018;2023-07-13T00:05:21;8.55;;;1.75;;
39098;SDS011;24844;52.380;7.018;2023-07-13T00:07:49;7.50;;;1.80;;
39098;SDS011;24844;52.380;7.018;2023-07-13T00:10:16;5.13;;;1.42;;
39098;SDS011;24844;52.380;7.018;2023-07-13T00:12:42;9.10;;;1.98;;
39098;SDS011;24844;52.380;7.018;2023-07-13T00:15:13;6.50;;;1.73;;
39098;SDS011;24844;52.380;7.018;2023-07-13T00:17:41;5.10;;;1.60;;
39098;SDS011;24844;52.380;7.018;2023-07-13T00:20:09;7.18;;;1.83;;
39098;SDS011;24844;52.380;7.018;2023-07-13T00:22:36;5.95;;;1.60;;
39098;SDS011;24844;52.380;7.018;2023-07-13T00:25:02;7.68;;;1.85;;
39098;SDS011;24844;52.380;7.018;2023-07-13T00:27:28;6.32;;;2.00;;
39098;SDS011;24844;52.380;7.018;2023-07-13T00:29:56;6.53;;;2.10;;
39098;SDS011;24844;52.380;7.018;2023-07-13T00:32:22;9.77;;;2.30;;
39098;SDS011;24844;52.380;7.018;2023-07-13T00:34:50;5.13;;;1.80;;
39098;SDS011;24844;52.380;7.018;2023-07-13T00:37:16;7.68;;;2.08;;
39098;SDS011;24844;52.380;7.018;2023-07-13T00:39:42;7.95;;;2.20;;
39098;SDS011;24844;52.380;7.018;2023-07-13T00:42:08;9.55;;;1.90;;
39098;SDS011;24844;52.380;7.018;2023-07-13T00:44:33;11.23;;;2.30;;
39098;SDS011;24844;52.380;7.018;2023-07-13T00:46:59;4.82;;;1.70;;
39098;SDS011;24844;52.380;7.018;2023-07-13T00:49:25;10.52;;;2.17;;
39098;SDS011;24844;52.380;7.018;2023-07-13T00:54:38;7.97;;;1.98;;
39098;SDS011;24844;52.380;7.018;2023-07-13T00:57:07;10.75;;;2.10;;
39098;SDS011;24844;52.380;7.018;2023-07-13T00:59:36;7.75;;;2.20;;
39098;SDS011;24844;52.380;7.018;2023-07-13T01:02:06;5.05;;;1.98;;
39098;SDS011;24844;52.380;7.018;2023-07-13T01:04:32;9.80;;;2.35;;
39098;SDS011;24844;52.380;7.018;2023-07-13T01:06:58;5.70;;;1.67;;
39098;SDS011;24844;52.380;7.018;2023-07-13T01:09:25;12.98;;;2.40;;
39098;SDS011;24844;52.380;7.018;2023-07-13T01:11:51;8.85;;;2.00;;
39098;SDS011;24844;52.380;7.018;2023-07-13T01:14:17;6.88;;;1.90;;
39098;SDS011;24844;52.380;7.018;2023-07-13T01:16:44;9.35;;;2.28;;
39098;SDS011;24844;52.380;7.018;2023-07-13T01:19:18;9.82;;;2.47;;
39098;SDS011;24844;52.380;7.018;2023-07-13T01:21:54;10.02;;;2.50;;
39098;SDS011;24844;52.380;7.018;2023-07-13T01:24:20;5.93;;;1.85;;
39098;SDS011;24844;52.380;7.018;2023-07-13T01:26:46;14.55;;;2.67;;
39098;SDS011;24844;52.380;7.018;2023-07-13T01:29:12;11.75;;;2.28;;
39098;SDS011;24844;52.380;7.018;2023-07-13T01:31:37;13.63;;;2.90;;
39098;SDS011;24844;52.380;7.018;2023-07-13T01:34:03;7.47;;;2.20;;
39098;SDS011;24844;52.380;7.018;2023-07-13T01:36:28;8.85;;;2.30;;
39098;SDS011;24844;52.380;7.018;2023-07-13T01:38:54;6.45;;;2.05;;
39098;SDS011;24844;52.380;7.018;2023-07-13T01:41:20;7.78;;;2.90;;
39098;SDS011;24844;52.380;7.018;2023-07-13T01:43:45;10.98;;;2.22;;
39098;SDS011;24844;52.380;7.018;2023-07-13T01:46:11;11.55;;;2.65;;
39098;SDS011;24844;52.380;7.018;2023-07-13T01:48:37;10.77;;;2.75;;
39098;SDS011;24844;52.380;7.018;2023-07-13T01:51:02;9.50;;;3.03;;
39098;SDS011;24844;52.380;7.018;2023-07-13T01:53:28;13.27;;;2.67;;
39098;SDS011;24844;52.380;7.018;2023-07-13T01:55:54;9.82;;;2.67;;
39098;SDS011;24844;52.380;7.018;2023-07-13T01:58:20;12.25;;;2.95;;
39098;SDS011;24844;52.380;7.018;2023-07-13T02:00:47;9.10;;;2.50;;
39098;SDS011;24844;52.380;7.018;2023-07-13T02:03:14;9.40;;;2.72;;
39098;SDS011;24844;52.380;7.018;2023-07-13T02:05:43;8.82;;;2.58;;
39098;SDS011;24844;52.380;7.018;2023-07-13T02:08:09;9.85;;;2.70;;
39098;SDS011;24844;52.380;7.018;2023-07-13T02:10:35;10.18;;;2.88;;
39098;SDS011;24844;52.380;7.018;2023-07-13T02:13:03;9.50;;;2.70;;
39098;SDS011;24844;52.380;7.018;2023-07-13T02:15:30;6.50;;;2.28;;
39098;SDS011;24844;52.380;7.018;2023-07-13T02:17:56;13.52;;;2.25;;
39098;SDS011;24844;52.380;7.018;2023-07-13T02:20:23;10.70;;;2.88;;
39098;SDS011;24844;52.380;7.018;2023-07-13T02:22:49;8.25;;;2.67;;
39098;SDS011;24844;52.380;7.018;2023-07-13T02:25:15;10.65;;;2.72;;
39098;SDS011;24844;52.380;7.018;2023-07-13T02:27:41;8.98;;;2.42;;
39098;SDS011;24844;52.380;7.018;2023-07-13T02:30:06;9.57;;;2.85;;
39098;SDS011;24844;52.380;7.018;2023-07-13T02:32:33;8.85;;;3.10;;
39098;SDS011;24844;52.380;7.018;2023-07-13T02:35:00;8.73;;;2.40;;
39098;SDS011;24844;52.380;7.018;2023-07-13T02:37:26;11.00;;;3.30;;
39098;SDS011;24844;52.380;7.018;2023-07-13T02:39:51;9.38;;;2.75;;
39098;SDS011;24844;52.380;7.018;2023-07-13T02:42:17;6.82;;;2.15;;
39098;SDS011;24844;52.380;7.018;2023-07-13T02:44:43;5.68;;;2.08;;
39098;SDS011;24844;52.380;7.018;2023-07-13T02:47:08;6.57;;;2.60;;
39098;SDS011;24844;52.380;7.018;2023-07-13T02:49:34;7.30;;;2.30;;
39098;SDS011;24844;52.380;7.018;2023-07-13T02:52:00;9.77;;;2.88;;
39098;SDS011;24844;52.380;7.018;2023-07-13T02:54:27;5.80;;;2.28;;
39098;SDS011;24844;52.380;7.018;2023-07-13T02:56:52;10.20;;;3.25;;
39098;SDS011;24844;52.380;7.018;2023-07-13T02:59:18;8.95;;;2.78;;
39098;SDS011;24844;52.380;7.018;2023-07-13T03:01:44;6.70;;;2.92;;
39098;SDS011;24844;52.380;7.018;2023-07-13T03:04:09;8.02;;;2.35;;
39098;SDS011;24844;52.380;7.018;2023-07-13T03:06:35;10.27;;;3.20;;
39098;SDS011;24844;52.380;7.018;2023-07-13T03:09:01;10.38;;;2.92;;
39098;SDS011;24844;52.380;7.018;2023-07-13T03:11:27;9.55;;;2.72;;
39098;SDS011;24844;52.380;7.018;2023-07-13T03:13:52;7.72;;;2.80;;
39098;SDS011;24844;52.380;7.018;2023-07-13T03:16:18;6.30;;;2.40;;
39098;SDS011;24844;52.380;7.018;2023-07-13T03:18:45;7.88;;;2.75;;
39098;SDS011;24844;52.380;7.018;2023-07-13T03:21:11;7.57;;;2.65;;
39098;SDS011;24844;52.380;7.018;2023-07-13T03:23:37;9.85;;;2.40;;
39098;SDS011;24844;52.380;7.018;2023-07-13T03:26:06;10.98;;;2.88;;
39098;SDS011;24844;52.380;7.018;2023-07-13T03:28:35;9.25;;;2.80;;
39098;SDS011;24844;52.380;7.018;2023-07-13T03:31:02;8.10;;;2.53;;
39098;SDS011;24844;52.380;7.018;2023-07-13T03:35:55;9.93;;;2.80;;
39098;SDS011;24844;52.380;7.018;2023-07-13T03:38:21;7.72;;;2.80;;
39098;SDS011;24844;52.380;7.018;2023-07-13T03:40:47;6.95;;;2.83;;
39098;SDS011;24844;52.380;7.018;2023-07-13T03:43:13;9.82;;;2.50;;
39098;SDS011;24844;52.380;7.018;2023-07-13T03:45:38;6.40;;;2.50;;
39098;SDS011;24844;52.380;7.018;2023-07-13T03:48:04;8.20;;;2.90;;
39098;SDS011;24844;52.380;7.018;2023-07-13T03:50:30;11.05;;;3.08;;
39098;SDS011;24844;52.380;7.018;2023-07-13T03:52:57;6.68;;;2.53;;
39098;SDS011;24844;52.380;7.018;2023-07-13T03:55:23;9.68;;;3.05;;
39098;SDS011;24844;52.380;7.018;2023-07-13T03:57:53;7.32;;;2.50;;
39098;SDS011;24844;52.380;7.018;2023-07-13T04:00:23;10.27;;;2.83;;
39098;SDS011;24844;52.380;7.018;2023-07-13T04:02:49;8.23;;;2.72;;
39098;SDS011;24844;52.380;7.018;2023-07-13T04:05:15;8.73;;;2.95;;
39098;SDS011;24844;52.380;7.018;2023-07-13T04:07:41;7.45;;;2.78;;
39098;SDS011;24844;52.380;7.018;2023-07-13T04:10:07;9.93;;;2.83;;
39098;SDS011;24844;52.380;7.018;2023-07-13T04:12:33;10.25;;;3.08;;
39098;SDS011;24844;52.380;7.018;2023-07-13T04:14:59;8.82;;;3.38;;
39098;SDS011;24844;52.380;7.018;2023-07-13T04:17:25;9.55;;;2.70;;
39098;SDS011;24844;52.380;7.018;2023-07-13T04:19:50;12.90;;;3.42;;
39098;SDS011;24844;52.380;7.018;2023-07-13T04:22:16;11.20;;;3.45;;
39098;SDS011;24844;52.380;7.018;2023-07-13T04:24:42;8.82;;;2.97;;
39098;SDS011;24844;52.380;7.018;2023-07-13T04:27:08;7.55;;;3.00;;
39098;SDS011;24844;52.380;7.018;2023-07-13T04:29:34;9.80;;;2.97;;
39098;SDS011;24844;52.380;7.018;2023-07-13T04:32:00;9.82;;;3.28;;
39098;SDS011;24844;52.380;7.018;2023-07-13T04:34:26;10.70;;;3.60;;
39098;SDS011;24844;52.380;7.018;2023-07-13T04:36:52;8.77;;;3.22;;
39098;SDS011;24844;52.380;7.018;2023-07-13T04:39:18;11.68;;;3.45;;
39098;SDS011;24844;52.380;7.018;2023-07-13T04:41:43;10.60;;;2.97;;
39098;SDS011;24844;52.380;7.018;2023-07-13T04:44:09;8.73;;;3.00;;
39098;SDS011;24844;52.380;7.018;2023-07-13T04:46:35;9.80;;;2.67;;
39098;SDS011;24844;52.380;7.018;2023-07-13T04:49:00;9.05;;;3.20;;
39098;SDS011;24844;52.380;7.018;2023-07-13T04:51:28;10.60;;;4.07;;
39098;SDS011;24844;52.380;7.018;2023-07-13T04:53:54;11.52;;;3.40;;
39098;SDS011;24844;52.380;7.018;2023-07-13T04:56:20;10.85;;;3.22;;
39098;SDS011;24844;52.380;7.018;2023-07-13T04:58:45;8.57;;;3.50;;
39098;SDS011;24844;52.380;7.018;2023-07-13T05:01:11;9.45;;;3.20;;
39098;SDS011;24844;52.380;7.018;2023-07-13T05:03:38;14.15;;;3.85;;
39098;SDS011;24844;52.380;7.018;2023-07-13T05:06:05;11.70;;;3.28;;
39098;SDS011;24844;52.380;7.018;2023-07-13T05:08:32;10.77;;;2.83;;
39098;SDS011;24844;52.380;7.018;2023-07-13T05:11:01;8.05;;;3.00;;
39098;SDS011;24844;52.380;7.018;2023-07-13T05:13:28;12.48;;;3.33;;
39098;SDS011;24844;52.380;7.018;2023-07-13T05:15:55;11.25;;;3.20;;
39098;SDS011;24844;52.380;7.018;2023-07-13T05:18:24;11.70;;;3.30;;
39098;SDS011;24844;52.380;7.018;2023-07-13T05:20:57;11.68;;;3.47;;
39098;SDS011;24844;52.380;7.018;2023-07-13T05:23:31;8.32;;;3.30;;
39098;SDS011;24844;52.380;7.018;2023-07-13T05:25:57;8.45;;;3.10;;
39098;SDS011;24844;52.380;7.018;2023-07-13T05:28:24;9.02;;;3.20;;
39098;SDS011;24844;52.380;7.018;2023-07-13T05:30:50;8.38;;;3.53;;
39098;SDS011;24844;52.380;7.018;2023-07-13T05:33:16;9.70;;;3.08;;
39098;SDS011;24844;52.380;7.018;2023-07-13T05:35:42;7.78;;;2.97;;
39098;SDS011;24844;52.380;7.018;2023-07-13T05:38:08;10.30;;;3.13;;
39098;SDS011;24844;52.380;7.018;2023-07-13T05:40:34;11.75;;;3.72;;
39098;SDS011;24844;52.380;7.018;2023-07-13T05:42:59;11.82;;;3.83;;
39098;SDS011;24844;52.380;7.018;2023-07-13T05:45:25;9.68;;;3.70;;
39098;SDS011;24844;52.380;7.018;2023-07-13T05:47:51;10.48;;;3.80;;
39098;SDS011;24844;52.380;7.018;2023-07-13T05:50:16;11.85;;;3.67;;
39098;SDS011;24844;52.380;7.018;2023-07-13T05:52:42;9.75;;;3.17;;
39098;SDS011;24844;52.380;7.018;2023-07-13T05:55:08;10.23;;;3.53;;
39098;SDS011;24844;52.380;7.018;2023-07-13T05:57:33;10.02;;;4.13;;
39098;SDS011;24844;52.380;7.018;2023-07-13T05:59:59;10.10;;;3.47;;
39098;SDS011;24844;52.380;7.018;2023-07-13T06:02:25;12.90;;;4.50;;
39098;SDS011;24844;52.380;7.018;2023-07-13T06:04:51;11.75;;;3.97;;
39098;SDS011;24844;52.380;7.018;2023-07-13T06:07:17;10.45;;;3.10;;
39098;SDS011;24844;52.380;7.018;2023-07-13T06:09:42;10.15;;;3.05;;
39098;SDS011;24844;52.380;7.018;2023-07-13T06:12:08;13.88;;;4.22;;
39098;SDS011;24844;52.380;7.018;2023-07-13T06:14:34;12.13;;;4.00;;
39098;SDS011;24844;52.380;7.018;2023-07-13T06:17:00;6.32;;;2.63;;
39098;SDS011;24844;52.380;7.018;2023-07-13T06:19:25;15.90;;;3.88;;
39098;SDS011;24844;52.380;7.018;2023-07-13T06:21:51;11.30;;;7.15;;
39098;SDS011;24844;52.380;7.018;2023-07-13T06:24:17;15.07;;;6.45;;
39098;SDS011;24844;52.380;7.018;2023-07-13T06:26:42;13.75;;;4.22;;
39098;SDS011;24844;52.380;7.018;2023-07-13T06:29:08;10.45;;;4.60;;
39098;SDS011;24844;52.380;7.018;2023-07-13T06:31:34;11.85;;;3.70;;
39098;SDS011;24844;52.380;7.018;2023-07-13T06:33:59;18.13;;;4.43;;
39098;SDS011;24844;52.380;7.018;2023-07-13T06:36:25;11.30;;;3.38;;
39098;SDS011;24844;52.380;7.018;2023-07-13T06:38:51;7.18;;;3.20;;
39098;SDS011;24844;52.380;7.018;2023-07-13T06:41:16;12.50;;;3.60;;
39098;SDS011;24844;52.380;7.018;2023-07-13T06:43:42;9.13;;;3.78;;
39098;SDS011;24844;52.380;7.018;2023-07-13T06:46:08;12.43;;;4.65;;
39098;SDS011;24844;52.380;7.018;2023-07-13T06:48:34;7.75;;;3.63;;
39098;SDS011;24844;52.380;7.018;2023-07-13T06:51:02;11.10;;;5.30;;
39098;SDS011;24844;52.380;7.018;2023-07-13T06:53:28;14.35;;;4.57;;
39098;SDS011;24844;52.380;7.018;2023-07-13T06:55:54;15.80;;;7.95;;
39098;SDS011;24844;52.380;7.018;2023-07-13T06:58:20;14.10;;;6.18;;
39098;SDS011;24844;52.380;7.018;2023-07-13T07:00:46;10.85;;;4.90;;
39098;SDS011;24844;52.380;7.018;2023-07-13T07:03:15;13.35;;;9.35;;
39098;SDS011;24844;52.380;7.018;2023-07-13T07:05:40;10.80;;;5.40;;
39098;SDS011;24844;52.380;7.018;2023-07-13T07:08:06;13.20;;;5.10;;
39098;SDS011;24844;52.380;7.018;2023-07-13T07:10:32;15.40;;;7.22;;
39098;SDS011;24844;52.380;7.018;2023-07-13T07:12:59;12.23;;;5.05;;
39098;SDS011;24844;52.380;7.018;2023-07-13T07:15:25;12.20;;;9.52;;
39098;SDS011;24844;52.380;7.018;2023-07-13T07:17:51;15.45;;;8.02;;
39098;SDS011;24844;52.380;7.018;2023-07-13T07:20:17;10.88;;;4.90;;
39098;SDS011;24844;52.380;7.018;2023-07-13T07:22:43;11.35;;;5.63;;
39098;SDS011;24844;52.380;7.018;2023-07-13T07:25:08;12.30;;;9.20;;
39098;SDS011;24844;52.380;7.018;2023-07-13T07:27:34;13.15;;;6.47;;
39098;SDS011;24844;52.380;7.018;2023-07-13T07:30:00;11.23;;;4.55;;
39098;SDS011;24844;52.380;7.018;2023-07-13T07:32:25;15.20;;;5.68;;
39098;SDS011;24844;52.380;7.018;2023-07-13T07:34:51;11.00;;;4.90;;
39098;SDS011;24844;52.380;7.018;2023-07-13T07:37:17;13.02;;;4.97;;
39098;SDS011;24844;52.380;7.018;2023-07-13T07:39:42;10.45;;;4.22;;
39098;SDS011;24844;52.380;7.018;2023-07-13T07:42:08;15.65;;;8.93;;
39098;SDS011;24844;52.380;7.018;2023-07-13T07:44:34;12.65;;;9.32;;
39098;SDS011;24844;52.380;7.018;2023-07-13T07:47:00;13.60;;;5.20;;
39098;SDS011;24844;52.380;7.018;2023-07-13T07:49:26;14.00;;;4.75;;
39098;SDS011;24844;52.380;7.018;2023-07-13T07:51:52;10.10;;;3.78;;
39098;SDS011;24844;52.380;7.018;2023-07-13T07:54:18;10.27;;;3.70;;
39098;SDS011;24844;52.380;7.018;2023-07-13T07:56:44;11.00;;;4.25;;
39098;SDS011;24844;52.380;7.018;2023-07-13T07:59:09;12.63;;;6.18;;
39098;SDS011;24844;52.380;7.018;2023-07-13T08:01:35;13.95;;;7.45;;
39098;SDS011;24844;52.380;7.018;2023-07-13T08:04:01;10.70;;;6.05;;
39098;SDS011;24844;52.380;7.018;2023-07-13T08:06:27;19.75;;;7.72;;
39098;SDS011;24844;52.380;7.018;2023-07-13T08:08:53;15.75;;;8.77;;
39098;SDS011;24844;52.380;7.018;2023-07-13T08:11:20;12.75;;;8.52;;
39098;SDS011;24844;52.380;7.018;2023-07-13T08:13:46;14.40;;;6.97;;
39098;SDS011;24844;52.380;7.018;2023-07-13T08:16:12;12.40;;;4.95;;
39098;SDS011;24844;52.380;7.018;2023-07-13T08:18:38;14.50;;;6.45;;
39098;SDS011;24844;52.380;7.018;2023-07-13T08:21:04;13.98;;;5.55;;
39098;SDS011;24844;52.380;7.018;2023-07-13T08:23:31;13.43;;;9.60;;
39098;SDS011;24844;52.380;7.018;2023-07-13T08:25:57;14.35;;;5.75;;
39098;SDS011;24844;52.380;7.018;2023-07-13T08:28:23;13.88;;;7.25;;
39098;SDS011;24844;52.380;7.018;2023-07-13T08:30:49;13.25;;;6.60;;
39098;SDS011;24844;52.380;7.018;2023-07-13T08:33:15;11.32;;;5.63;;
39098;SDS011;24844;52.380;7.018;2023-07-13T08:35:42;13.20;;;8.18;;
39098;SDS011;24844;52.380;7.018;2023-07-13T08:38:10;13.40;;;6.30;;
39098;SDS011;24844;52.380;7.018;2023-07-13T08:40:36;11.55;;;7.75;;
39098;SDS011;24844;52.380;7.018;2023-07-13T08:43:01;9.23;;;6.15;;
39098;SDS011;24844;52.380;7.018;2023-07-13T08:45:42;12.57;;;10.25;;
39098;SDS011;24844;52.380;7.018;2023-07-13T08:48:15;10.18;;;5.00;;
39098;SDS011;24844;52.380;7.018;2023-07-13T08:50:49;14.70;;;8.90;;
39098;SDS011;24844;52.380;7.018;2023-07-13T08:53:19;9.95;;;7.38;;
39098;SDS011;24844;52.380;7.018;2023-07-13T08:55:46;11.23;;;7.18;;
39098;SDS011;24844;52.380;7.018;2023-07-13T08:58:12;11.65;;;5.70;;
39098;SDS011;24844;52.380;7.018;2023-07-13T09:00:56;10.10;;;6.60;;
39098;SDS011;24844;52.380;7.018;2023-07-13T09:03:31;10.90;;;5.72;;
39098;SDS011;24844;52.380;7.018;2023-07-13T09:06:06;12.73;;;5.05;;
39098;SDS011;24844;52.380;7.018;2023-07-13T09:08:38;10.80;;;8.00;;
39098;SDS011;24844;52.380;7.018;2023-07-13T09:14:41;11.20;;;5.30;;
39098;SDS011;24844;52.380;7.018;2023-07-13T09:17:11;9.63;;;5.68;;
39098;SDS011;24844;52.380;7.018;2023-07-13T09:19:46;10.52;;;5.43;;
39098;SDS011;24844;52.380;7.018;2023-07-13T09:22:18;10.45;;;5.43;;
39098;SDS011;24844;52.380;7.018;2023-07-13T09:27:19;15.35;;;7.72;;
39098;SDS011;24844;52.380;7.018;2023-07-13T09:30:36;8.48;;;4.90;;
39098;SDS011;24844;52.380;7.018;2023-07-13T09:32:51;11.38;;;5.38;;
39098;SDS011;24844;52.380;7.018;2023-07-13T09:35:35;14.05;;;5.72;;
39098;SDS011;24844;52.380;7.018;2023-07-13T09:38:11;12.13;;;8.40;;
39098;SDS011;24844;52.380;7.018;2023-07-13T09:43:21;18.23;;;10.43;;
39098;SDS011;24844;52.380;7.018;2023-07-13T09:45:47;8.90;;;6.53;;
39098;SDS011;24844;52.380;7.018;2023-07-13T09:48:14;12.85;;;9.23;;
39098;SDS011;24844;52.380;7.018;2023-07-13T09:50:41;14.00;;;12.00;;
39098;SDS011;24844;52.380;7.018;2023-07-13T09:53:14;12.82;;;6.85;;
39098;SDS011;24844;52.380;7.018;2023-07-13T09:55:42;10.48;;;7.25;;
39098;SDS011;24844;52.380;7.018;2023-07-13T10:00:39;13.02;;;6.40;;
39098;SDS011;24844;52.380;7.018;2023-07-13T10:05:44;11.83;;;6.20;;
39098;SDS011;24844;52.380;7.018;2023-07-13T10:08:16;21.77;;;15.48;;
39098;SDS011;24844;52.380;7.018;2023-07-13T10:10:43;16.67;;;8.70;;
39098;SDS011;24844;52.380;7.018;2023-07-13T10:13:26;13.98;;;9.55;;
39098;SDS011;24844;52.380;7.018;2023-07-13T10:16:04;14.05;;;8.68;;
39098;SDS011;24844;52.380;7.018;2023-07-13T10:18:35;16.98;;;7.85;;
39098;SDS011;24844;52.380;7.018;2023-07-13T10:21:13;16.13;;;7.57;;
39098;SDS011;24844;52.380;7.018;2023-07-13T10:23:43;16.55;;;8.70;;
39098;SDS011;24844;52.380;7.018;2023-07-13T10:26:16;14.70;;;7.28;;
39098;SDS011;24844;52.380;7.018;2023-07-13T10:28:47;19.35;;;9.60;;
39098;SDS011;24844;52.380;7.018;2023-07-13T10:31:18;19.45;;;9.90;;
39098;SDS011;24844;52.380;7.018;2023-07-13T10:33:45;16.92;;;7.30;;
39098;SDS011;24844;52.380;7.018;2023-07-13T10:36:13;14.02;;;6.90;;
39098;SDS011;24844;52.380;7.018;2023-07-13T10:39:04;15.38;;;7.72;;
39098;SDS011;24844;52.380;7.018;2023-07-13T10:41:32;17.67;;;11.05;;
39098;SDS011;24844;52.380;7.018;2023-07-13T10:44:01;19.05;;;6.75;;
39098;SDS011;24844;52.380;7.018;2023-07-13T10:46:29;18.90;;;13.30;;
39098;SDS011;24844;52.380;7.018;2023-07-13T10:48:59;10.75;;;6.40;;
39098;SDS011;24844;52.380;7.018;2023-07-13T10:51:27;13.23;;;7.50;;
39098;SDS011;24844;52.380;7.018;2023-07-13T10:54:17;14.45;;;12.50;;
39098;SDS011;24844;52.380;7.018;2023-07-13T10:56:42;13.38;;;6.35;;
39098;SDS011;24844;52.380;7.018;2023-07-13T11:01:46;11.85;;;6.95;;
39098;SDS011;24844;52.380;7.018;2023-07-13T11:04:23;11.40;;;7.03;;
39098;SDS011;24844;52.380;7.018;2023-07-13T11:06:52;10.25;;;7.40;;
39098;SDS011;24844;52.380;7.018;2023-07-13T11:11:58;10.07;;;7.45;;
39098;SDS011;24844;52.380;7.018;2023-07-13T11:15:27;15.60;;;8.77;;
39098;SDS011;24844;52.380;7.018;2023-07-13T11:20:40;10.95;;;6.50;;
39098;SDS011;24844;52.380;7.018;2023-07-13T11:27:49;10.70;;;7.07;;
39098;SDS011;24844;52.380;7.018;2023-07-13T11:33:07;12.35;;;7.05;;
39098;SDS011;24844;52.380;7.018;2023-07-13T11:40:53;12.73;;;9.45;;
39098;SDS011;24844;52.380;7.018;2023-07-13T11:43:20;9.90;;;7.47;;
39098;SDS011;24844;52.380;7.018;2023-07-13T11:45:48;13.65;;;7.68;;
39098;SDS011;24844;52.380;7.018;2023-07-13T11:48:22;14.95;;;7.97;;
39098;SDS011;24844;52.380;7.018;2023-07-13T11:50:51;17.05;;;9.63;;
39098;SDS011;24844;52.380;7.018;2023-07-13T11:53:21;16.40;;;9.20;;
39098;SDS011;24844;52.380;7.018;2023-07-13T11:55:47;12.90;;;8.43;;
39098;SDS011;24844;52.380;7.018;2023-07-13T11:58:14;12.35;;;7.43;;
39098;SDS011;24844;52.380;7.018;2023-07-13T12:00:46;12.98;;;6.72;;
39098;SDS011;24844;52.380;7.018;2023-07-13T12:03:13;14.90;;;8.18;;
39098;SDS011;24844;52.380;7.018;2023-07-13T12:05:54;10.38;;;6.47;;
39098;SDS011;24844;52.380;7.018;2023-07-13T12:08:26;12.30;;;6.78;;
39098;SDS011;24844;52.380;7.018;2023-07-13T12:11:05;16.35;;;7.68;;
39098;SDS011;24844;52.380;7.018;2023-07-13T12:13:37;11.93;;;6.82;;
39098;SDS011;24844;52.380;7.018;2023-07-13T12:16:10;15.38;;;8.07;;
39098;SDS011;24844;52.380;7.018;2023-07-13T12:18:39;11.32;;;7.20;;
39098;SDS011;24844;52.380;7.018;2023-07-13T12:21:05;14.48;;;8.48;;
39098;SDS011;24844;52.380;7.018;2023-07-13T12:23:34;10.65;;;6.57;;
39098;SDS011;24844;52.380;7.018;2023-07-13T12:26:04;10.60;;;6.30;;
39098;SDS011;24844;52.380;7.018;2023-07-13T12:34:00;7.07;;;3.80;;
39098;SDS011;24844;52.380;7.018;2023-07-13T12:36:31;4.72;;;3.47;;
39098;SDS011;24844;52.380;7.018;2023-07-13T12:39:00;5.13;;;3.33;;
39098;SDS011;24844;52.380;7.018;2023-07-13T12:41:38;5.15;;;3.30;;
39098;SDS011;24844;52.380;7.018;2023-07-13T12:44:07;4.60;;;3.22;;
39098;SDS011;24844;52.380;7.018;2023-07-13T12:46:39;8.95;;;8.02;;
39098;SDS011;24844;52.380;7.018;2023-07-13T12:49:16;4.40;;;2.58;;
39098;SDS011;24844;52.380;7.018;2023-07-13T12:51:49;5.75;;;2.22;;
39098;SDS011;24844;52.380;7.018;2023-07-13T12:54:19;6.15;;;3.60;;
39098;SDS011;24844;52.380;7.018;2023-07-13T12:56:45;5.57;;;2.90;;
39098;SDS011;24844;52.380;7.018;2023-07-13T12:59:18;7.88;;;2.50;;
39098;SDS011;24844;52.380;7.018;2023-07-13T13:01:46;4.20;;;3.20;;
39098;SDS011;24844;52.380;7.018;2023-07-13T13:04:12;8.02;;;3.25;;
39098;SDS011;24844;52.380;7.018;2023-07-13T13:06:38;6.57;;;2.80;;
39098;SDS011;24844;52.380;7.018;2023-07-13T13:09:09;5.43;;;2.60;;
39098;SDS011;24844;52.380;7.018;2023-07-13T13:11:40;5.93;;;2.67;;
39098;SDS011;24844;52.380;7.018;2023-07-13T13:14:06;5.85;;;3.05;;
39098;SDS011;24844;52.380;7.018;2023-07-13T13:16:34;5.43;;;3.08;;
39098;SDS011;24844;52.380;7.018;2023-07-13T13:19:19;8.18;;;3.67;;
39098;SDS011;24844;52.380;7.018;2023-07-13T13:21:48;6.57;;;3.30;;
39098;SDS011;24844;52.380;7.018;2023-07-13T13:24:19;3.75;;;2.88;;
39098;SDS011;24844;52.380;7.018;2023-07-13T13:26:49;6.22;;;2.90;;
39098;SDS011;24844;52.380;7.018;2023-07-13T13:29:17;5.93;;;3.13;;
39098;SDS011;24844;52.380;7.018;2023-07-13T13:31:45;4.50;;;2.90;;
39098;SDS011;24844;52.380;7.018;2023-07-13T13:34:12;5.47;;;2.92;;
39098;SDS011;24844;52.380;7.018;2023-07-13T13:36:39;5.13;;;3.15;;
39098;SDS011;24844;52.380;7.018;2023-07-13T13:39:19;5.20;;;2.97;;
39098;SDS011;24844;52.380;7.018;2023-07-13T13:41:50;5.72;;;3.35;;
39098;SDS011;24844;52.380;7.018;2023-07-13T13:44:18;8.52;;;3.80;;
39098;SDS011;24844;52.380;7.018;2023-07-13T13:46:47;7.30;;;3.65;;
39098;SDS011;24844;52.380;7.018;2023-07-13T13:49:16;8.18;;;4.18;;
39098;SDS011;24844;52.380;7.018;2023-07-13T13:51:46;6.47;;;3.90;;
39098;SDS011;24844;52.380;7.018;2023-07-13T13:54:12;5.28;;;3.70;;
39098;SDS011;24844;52.380;7.018;2023-07-13T13:56:41;7.22;;;4.07;;
39098;SDS011;24844;52.380;7.018;2023-07-13T13:59:12;7.95;;;4.05;;
39098;SDS011;24844;52.380;7.018;2023-07-13T14:01:39;4.93;;;3.70;;
39098;SDS011;24844;52.380;7.018;2023-07-13T14:04:06;8.40;;;4.03;;
39098;SDS011;24844;52.380;7.018;2023-07-13T14:06:43;8.25;;;4.07;;
39098;SDS011;24844;52.380;7.018;2023-07-13T14:09:10;5.78;;;3.38;;
39098;SDS011;24844;52.380;7.018;2023-07-13T14:11:38;7.38;;;3.28;;
39098;SDS011;24844;52.380;7.018;2023-07-13T14:14:08;5.93;;;3.00;;
39098;SDS011;24844;52.380;7.018;2023-07-13T14:16:43;5.43;;;3.13;;
39098;SDS011;24844;52.380;7.018;2023-07-13T14:19:10;5.30;;;2.88;;
39098;SDS011;24844;52.380;7.018;2023-07-13T14:21:37;4.43;;;2.67;;
39098;SDS011;24844;52.380;7.018;2023-07-13T14:24:03;4.45;;;2.72;;
39098;SDS011;24844;52.380;7.018;2023-07-13T14:26:29;4.45;;;2.75;;
39098;SDS011;24844;52.380;7.018;2023-07-13T14:29:01;3.78;;;2.92;;
39098;SDS011;24844;52.380;7.018;2023-07-13T14:31:30;3.97;;;2.30;;
39098;SDS011;24844;52.380;7.018;2023-07-13T14:33:55;5.35;;;3.15;;
39098;SDS011;24844;52.380;7.018;2023-07-13T14:38:57;4.28;;;2.78;;
39098;SDS011;24844;52.380;7.018;2023-07-13T14:41:24;4.05;;;2.65;;
39098;SDS011;24844;52.380;7.018;2023-07-13T14:43:51;6.15;;;3.63;;
39098;SDS011;24844;52.380;7.018;2023-07-13T14:46:28;3.45;;;2.80;;
39098;SDS011;24844;52.380;7.018;2023-07-13T14:51:56;6.13;;;2.90;;
39098;SDS011;24844;52.380;7.018;2023-07-13T14:54:23;2.90;;;2.60;;
39098;SDS011;24844;52.380;7.018;2023-07-13T14:56:49;6.45;;;3.00;;
39098;SDS011;24844;52.380;7.018;2023-07-13T14:59:15;4.82;;;2.90;;
39098;SDS011;24844;52.380;7.018;2023-07-13T15:01:43;5.75;;;2.92;;
39098;SDS011;24844;52.380;7.018;2023-07-13T15:04:10;5.55;;;3.17;;
39098;SDS011;24844;52.380;7.018;2023-07-13T15:06:55;7.53;;;3.00;;
39098;SDS011;24844;52.380;7.018;2023-07-13T15:09:26;5.50;;;3.42;;
39098;SDS011;24844;52.380;7.018;2023-07-13T15:11:54;7.93;;;4.40;;
39098;SDS011;24844;52.380;7.018;2023-07-13T15:14:21;4.68;;;3.17;;
39098;SDS011;24844;52.380;7.018;2023-07-13T15:16:47;6.72;;;3.45;;
39098;SDS011;24844;52.380;7.018;2023-07-13T15:19:16;4.97;;;3.17;;
39098;SDS011;24844;52.380;7.018;2023-07-13T15:21:43;6.67;;;4.00;;
39098;SDS011;24844;52.380;7.018;2023-07-13T15:24:12;4.55;;;3.20;;
39098;SDS011;24844;52.380;7.018;2023-07-13T15:26:38;5.50;;;3.95;;
39098;SDS011;24844;52.380;7.018;2023-07-13T15:29:04;6.70;;;3.95;;
39098;SDS011;24844;52.380;7.018;2023-07-13T15:31:30;5.35;;;4.18;;
39098;SDS011;24844;52.380;7.018;2023-07-13T15:33:58;5.50;;;4.75;;
39098;SDS011;24844;52.380;7.018;2023-07-13T15:36:25;6.28;;;4.78;;